createdAt,value
2023-12-29T00:04:01.051Z,64.40
2023-12-29T00:09:29.752Z,64.90
2023-12-29T00:14:57.674Z,65.10
2023-12-29T00:20:34.019Z,65.10
2023-12-29T00:26:09.169Z,65.20
2023-12-29T00:31:37.576Z,65.10
2023-12-29T00:37:07.131Z,64.90
2023-12-29T00:42:35.012Z,64.60
2023-12-29T00:48:04.153Z,64.50
2023-12-29T00:53:33.464Z,64.30
2023-12-29T00:59:01.364Z,64.30
2023-12-29T01:04:29.533Z,64.60
2023-12-29T01:09:57.487Z,64.90
2023-12-29T01:15:25.349Z,64.70
2023-12-29T01:20:53.859Z,64.80
2023-12-29T01:26:21.777Z,64.90
2023-12-29T01:31:49.856Z,64.90
2023-12-29T01:37:17.887Z,65.00
2023-12-29T01:42:45.893Z,65.10
2023-12-29T01:48:14.611Z,65.10
2023-12-29T01:53:48.016Z,65.10
2023-12-29T01:59:25.271Z,65.40
2023-12-29T02:04:54.763Z,65.40
2023-12-29T02:10:23.590Z,65.50
2023-12-29T02:15:56.229Z,65.70
2023-12-29T02:21:28.069Z,65.80
2023-12-29T02:27:28.251Z,65.90
2023-12-29T02:33:02.005Z,66.00
2023-12-29T02:38:30.622Z,66.00
2023-12-29T02:44:00.585Z,66.20
2023-12-29T02:49:28.825Z,66.40
2023-12-29T02:54:56.786Z,66.50
2023-12-29T03:00:25.064Z,66.50
2023-12-29T03:05:52.941Z,66.50
2023-12-29T03:11:20.982Z,66.60
2023-12-29T03:16:48.815Z,66.50
2023-12-29T03:22:16.809Z,66.50
2023-12-29T03:27:44.738Z,66.30
2023-12-29T03:33:12.771Z,66.10
2023-12-29T03:38:41.012Z,65.90
2023-12-29T03:44:08.889Z,65.90
2023-12-29T03:49:37.020Z,65.90
2023-12-29T03:55:05.733Z,65.90
2023-12-29T04:00:33.880Z,65.70
2023-12-29T04:06:01.892Z,65.60
2023-12-29T04:11:29.757Z,65.40
2023-12-29T04:16:57.578Z,65.30
2023-12-29T04:22:25.512Z,65.00
2023-12-29T04:27:53.546Z,65.00
2023-12-29T04:33:21.487Z,64.90
2023-12-29T04:38:51.321Z,64.70
2023-12-29T04:44:19.207Z,64.70
2023-12-29T04:49:47.184Z,64.70
2023-12-29T04:55:15.273Z,64.70
2023-12-29T05:00:43.329Z,64.80
2023-12-29T05:06:11.809Z,64.70
2023-12-29T05:11:40.446Z,64.70
2023-12-29T05:17:09.881Z,64.60
2023-12-29T05:22:37.837Z,64.40
2023-12-29T05:28:06.088Z,64.40
2023-12-29T05:33:34.944Z,64.40
2023-12-29T05:39:03.651Z,64.40
2023-12-29T05:44:31.642Z,64.50
2023-12-29T05:49:59.578Z,64.60
2023-12-29T05:55:27.968Z,64.80
2023-12-29T06:01:02.952Z,64.90
2023-12-29T06:06:30.994Z,64.90
2023-12-29T06:11:59.055Z,64.80
2023-12-29T06:17:27.010Z,64.80
2023-12-29T06:22:56.727Z,65.00
2023-12-29T06:28:24.661Z,64.70
2023-12-29T06:33:52.766Z,64.70
2023-12-29T06:39:20.757Z,64.60
2023-12-29T06:44:49.096Z,64.40
2023-12-29T06:50:17.053Z,64.30
2023-12-29T06:55:45.099Z,64.20
2023-12-29T07:01:13.531Z,64.20
2023-12-29T07:06:41.591Z,64.10
2023-12-29T07:12:09.773Z,64.10
2023-12-29T07:17:37.767Z,64.10
2023-12-29T07:23:06.496Z,64.30
2023-12-29T07:28:34.812Z,64.50
2023-12-29T07:34:02.954Z,65.10
2023-12-29T07:39:31.001Z,65.50
2023-12-29T07:44:58.863Z,66.00
2023-12-29T07:50:26.806Z,66.70
2023-12-29T07:55:56.025Z,66.90
2023-12-29T08:01:24.125Z,67.00
2023-12-29T08:06:52.034Z,67.50
2023-12-29T08:12:21.334Z,67.50
2023-12-29T08:17:49.270Z,67.50
2023-12-29T08:23:17.227Z,67.30
2023-12-29T08:28:46.535Z,67.40
2023-12-29T08:34:14.708Z,67.40
2023-12-29T08:39:42.670Z,67.70
2023-12-29T08:45:10.823Z,68.10
2023-12-29T08:50:38.682Z,68.50
2023-12-29T08:56:06.987Z,68.60
2023-12-29T09:01:34.987Z,68.80
2023-12-29T09:07:03.081Z,69.00
2023-12-29T09:12:31.109Z,69.30
2023-12-29T09:17:59.371Z,69.40
2023-12-29T09:23:27.402Z,69.40
2023-12-29T09:28:55.261Z,69.30
2023-12-29T09:34:23.211Z,69.40
2023-12-29T09:39:51.197Z,69.50
2023-12-29T09:45:24.730Z,68.40
2023-12-29T09:50:53.892Z,68.40
2023-12-29T09:56:21.901Z,68.40
2023-12-29T10:01:50.430Z,68.40
2023-12-29T10:07:29.820Z,68.50
2023-12-29T10:12:59.266Z,68.60
2023-12-29T10:18:48.568Z,68.40
2023-12-29T10:24:23.689Z,68.60
2023-12-29T10:29:51.576Z,68.60
2023-12-29T10:35:20.542Z,68.70
2023-12-29T10:40:48.477Z,68.90
2023-12-29T10:46:16.507Z,69.00
2023-12-29T10:51:44.467Z,69.50
2023-12-29T10:57:14.009Z,69.70
2023-12-29T11:02:42.941Z,69.90
2023-12-29T11:08:22.468Z,70.40
2023-12-29T11:13:51.546Z,70.60
2023-12-29T11:19:20.086Z,70.50
2023-12-29T11:24:49.275Z,70.60
2023-12-29T11:30:18.049Z,70.50
2023-12-29T11:35:59.141Z,70.40
2023-12-29T11:42:14.268Z,70.40
2023-12-29T11:47:42.980Z,70.30
2023-12-29T11:53:34.142Z,70.90
2023-12-29T11:59:22.115Z,70.30
2023-12-29T12:04:51.810Z,70.10
2023-12-29T12:10:32.620Z,69.90
2023-12-29T12:16:00.797Z,70.10
2023-12-29T12:21:28.833Z,70.00
2023-12-29T12:26:57.233Z,70.60
2023-12-29T12:32:29.150Z,69.90
2023-12-29T12:38:22.593Z,69.80
2023-12-29T12:44:11.592Z,69.80
2023-12-29T12:49:39.721Z,69.80
2023-12-29T12:55:12.602Z,69.60
2023-12-29T13:00:40.809Z,69.80
2023-12-29T13:06:09.348Z,69.60
2023-12-29T13:11:38.054Z,69.50
2023-12-29T13:17:12.004Z,69.30
2023-12-29T13:22:39.928Z,69.40
2023-12-29T13:28:09.057Z,69.30
2023-12-29T13:33:54.882Z,69.10
2023-12-29T13:39:40.392Z,69.00
2023-12-29T13:45:10.767Z,68.90
2023-12-29T13:50:38.683Z,68.90
2023-12-29T13:56:11.181Z,69.00
2023-12-29T14:01:39.541Z,69.00
2023-12-29T14:07:10.844Z,69.10
2023-12-29T14:12:38.764Z,69.10
2023-12-29T14:18:34.556Z,68.90
2023-12-29T14:24:08.017Z,69.00
2023-12-29T14:29:45.235Z,68.80
2023-12-29T14:35:14.234Z,68.70
2023-12-29T14:40:42.097Z,68.50
2023-12-29T14:46:10.248Z,68.60
2023-12-29T14:51:38.199Z,68.60
2023-12-29T14:57:11.284Z,68.50
2023-12-29T15:02:44.435Z,68.40
2023-12-29T15:08:13.112Z,68.70
2023-12-29T15:13:40.960Z,68.70
2023-12-29T15:19:10.320Z,68.70
2023-12-29T15:24:38.347Z,68.80
2023-12-29T15:30:07.310Z,68.80
2023-12-29T15:35:35.212Z,68.90
2023-12-29T15:41:03.532Z,68.90
2023-12-29T15:46:31.458Z,69.00
2023-12-29T15:51:59.832Z,69.10
2023-12-29T15:57:27.643Z,69.00
2023-12-29T16:02:55.497Z,69.00
2023-12-29T16:08:23.348Z,69.10
2023-12-29T16:13:51.796Z,69.00
2023-12-29T16:19:19.847Z,69.00
2023-12-29T16:24:50.441Z,68.90
2023-12-29T16:30:18.395Z,69.00
2023-12-29T16:35:46.318Z,68.80
2023-12-29T16:41:14.738Z,69.90
2023-12-29T16:46:42.539Z,69.90
2023-12-29T16:52:10.557Z,69.90
2023-12-29T16:57:38.418Z,69.80
2023-12-29T17:03:06.424Z,69.90
2023-12-29T17:08:36.575Z,69.90
2023-12-29T17:14:04.428Z,69.80
2023-12-29T17:19:32.464Z,69.90
2023-12-29T17:25:00.452Z,69.90
2023-12-29T17:30:28.406Z,70.00
2023-12-29T17:35:56.551Z,69.90
2023-12-29T17:41:24.744Z,69.90
2023-12-29T17:46:56.928Z,69.90
2023-12-29T17:52:24.894Z,70.00
2023-12-29T17:57:52.820Z,70.00
2023-12-29T18:03:20.682Z,70.00
2023-12-29T18:08:48.569Z,70.00
2023-12-29T18:14:17.920Z,70.10
2023-12-29T18:19:45.852Z,70.10
2023-12-29T18:25:14.305Z,70.10
2023-12-29T18:30:42.949Z,70.10
2023-12-29T18:36:11.492Z,70.10
2023-12-29T18:41:39.419Z,70.20
2023-12-29T18:47:07.731Z,70.10
2023-12-29T18:52:35.616Z,70.10
2023-12-29T18:58:03.503Z,70.10
2023-12-29T19:03:33.512Z,70.00
2023-12-29T19:09:01.380Z,70.00
2023-12-29T19:14:29.277Z,69.90
2023-12-29T19:19:57.387Z,69.80
2023-12-29T19:25:25.525Z,69.80
2023-12-29T19:30:53.491Z,69.60
2023-12-29T19:36:22.103Z,69.50
2023-12-29T19:41:50.105Z,69.50
2023-12-29T19:47:19.108Z,69.40
2023-12-29T19:52:47.033Z,69.30
2023-12-29T19:58:15.074Z,69.40
2023-12-29T20:03:43.173Z,69.60
2023-12-29T20:09:11.405Z,69.80
2023-12-29T20:14:39.263Z,70.10
2023-12-29T20:20:10.608Z,70.40
2023-12-29T20:25:40.156Z,70.60
2023-12-29T20:31:08.204Z,71.00
2023-12-29T20:36:36.184Z,71.40
2023-12-29T20:42:04.780Z,71.80
2023-12-29T20:47:32.606Z,72.10
2023-12-29T20:53:00.730Z,72.20
2023-12-29T20:58:29.603Z,72.40
2023-12-29T21:03:57.531Z,72.80
2023-12-29T21:09:27.241Z,72.90
2023-12-29T21:14:56.648Z,72.90
2023-12-29T21:20:24.583Z,73.10
2023-12-29T21:25:52.430Z,73.10
2023-12-29T21:31:21.342Z,73.30
2023-12-29T21:36:49.313Z,73.40
2023-12-29T21:42:17.167Z,73.40
2023-12-29T21:47:45.417Z,73.50
2023-12-29T21:53:13.336Z,73.60
2023-12-29T21:58:41.365Z,73.90
2023-12-29T22:04:10.442Z,74.00
2023-12-29T22:09:39.530Z,74.20
2023-12-29T22:15:08.510Z,74.20
2023-12-29T22:20:36.385Z,74.30
2023-12-29T22:26:04.417Z,74.50
2023-12-29T22:31:33.520Z,74.50
2023-12-29T22:37:02.685Z,74.70
2023-12-29T22:42:31.045Z,74.80
2023-12-29T22:47:59.248Z,74.90
2023-12-29T22:53:30.144Z,74.90
2023-12-29T22:58:58.281Z,74.90
2023-12-29T23:04:26.554Z,75.20
2023-12-29T23:09:54.420Z,75.10
2023-12-29T23:15:23.048Z,75.10
2023-12-29T23:20:50.993Z,75.30
2023-12-29T23:26:18.838Z,75.50
2023-12-29T23:31:50.559Z,75.70
2023-12-29T23:37:19.093Z,75.80
2023-12-29T23:42:47.366Z,75.80
2023-12-29T23:48:15.408Z,76.00
2023-12-29T23:53:43.324Z,76.10
2023-12-29T23:59:11.302Z,76.20
